sensor_id;sensor_type;location;lat;lon;timestamp;P1;durP1;ratioP1;P2;durP2;ratioP2
27219;SDS011;45274;52.266;10.790;2023-12-20T00:00:56;5.05;;;4.00;;
27219;SDS011;45274;52.266;10.790;2023-12-20T00:03:21;5.88;;;4.25;;
27219;SDS011;45274;52.266;10.790;2023-12-20T00:05:47;5.55;;;4.25;;
27219;SDS011;45274;52.266;10.790;2023-12-20T00:08:12;5.28;;;4.25;;
27219;SDS011;45274;52.266;10.790;2023-12-20T00:10:37;6.15;;;4.00;;
27219;SDS011;45274;52.266;10.790;2023-12-20T00:13:03;5.50;;;4.05;;
27219;SDS011;45274;52.266;10.790;2023-12-20T00:15:28;5.13;;;3.95;;
27219;SDS011;45274;52.266;10.790;2023-12-20T00:17:54;4.47;;;3.78;;
27219;SDS011;45274;52.266;10.790;2023-12-20T00:20:19;5.20;;;4.35;;
27219;SDS011;45274;52.266;10.790;2023-12-20T00:22:44;4.90;;;4.15;;
27219;SDS011;45274;52.266;10.790;2023-12-20T00:25:09;5.50;;;4.80;;
27219;SDS011;45274;52.266;10.790;2023-12-20T00:27:36;6.30;;;5.32;;
27219;SDS011;45274;52.266;10.790;2023-12-20T00:30:01;5.45;;;4.55;;
27219;SDS011;45274;52.266;10.790;2023-12-20T00:32:26;5.82;;;4.60;;
27219;SDS011;45274;52.266;10.790;2023-12-20T00:34:51;6.07;;;4.10;;
27219;SDS011;45274;52.266;10.790;2023-12-20T00:37:17;4.47;;;4.07;;
27219;SDS011;45274;52.266;10.790;2023-12-20T00:39:42;6.25;;;4.22;;
27219;SDS011;45274;52.266;10.790;2023-12-20T00:42:07;6.45;;;4.60;;
27219;SDS011;45274;52.266;10.790;2023-12-20T00:44:32;5.80;;;4.90;;
27219;SDS011;45274;52.266;10.790;2023-12-20T00:46:58;6.63;;;5.65;;
27219;SDS011;45274;52.266;10.790;2023-12-20T00:49:23;5.88;;;5.07;;
27219;SDS011;45274;52.266;10.790;2023-12-20T00:51:48;6.28;;;5.00;;
27219;SDS011;45274;52.266;10.790;2023-12-20T00:54:15;4.10;;;2.45;;
27219;SDS011;45274;52.266;10.790;2023-12-20T00:56:40;3.97;;;2.08;;
27219;SDS011;45274;52.266;10.790;2023-12-20T00:59:06;5.65;;;1.70;;
27219;SDS011;45274;52.266;10.790;2023-12-20T01:01:31;4.03;;;1.45;;
27219;SDS011;45274;52.266;10.790;2023-12-20T01:03:58;6.88;;;1.80;;
27219;SDS011;45274;52.266;10.790;2023-12-20T01:06:23;7.05;;;1.50;;
27219;SDS011;45274;52.266;10.790;2023-12-20T01:08:48;4.82;;;1.40;;
27219;SDS011;45274;52.266;10.790;2023-12-20T01:11:13;5.53;;;1.40;;
27219;SDS011;45274;52.266;10.790;2023-12-20T01:13:38;7.03;;;1.80;;
27219;SDS011;45274;52.266;10.790;2023-12-20T01:16:04;4.18;;;1.52;;
27219;SDS011;45274;52.266;10.790;2023-12-20T01:18:29;5.03;;;1.60;;
27219;SDS011;45274;52.266;10.790;2023-12-20T01:20:55;3.63;;;1.30;;
27219;SDS011;45274;52.266;10.790;2023-12-20T01:23:20;2.45;;;1.10;;
27219;SDS011;45274;52.266;10.790;2023-12-20T01:25:45;5.00;;;1.30;;
27219;SDS011;45274;52.266;10.790;2023-12-20T01:28:11;11.75;;;2.30;;
27219;SDS011;45274;52.266;10.790;2023-12-20T01:30:36;7.38;;;1.45;;
27219;SDS011;45274;52.266;10.790;2023-12-20T01:33:02;6.18;;;1.65;;
27219;SDS011;45274;52.266;10.790;2023-12-20T01:35:27;7.82;;;1.30;;
27219;SDS011;45274;52.266;10.790;2023-12-20T01:37:52;13.13;;;1.50;;
27219;SDS011;45274;52.266;10.790;2023-12-20T01:40:21;5.10;;;1.33;;
27219;SDS011;45274;52.266;10.790;2023-12-20T01:42:47;5.72;;;1.52;;
27219;SDS011;45274;52.266;10.790;2023-12-20T01:45:12;5.45;;;1.20;;
27219;SDS011;45274;52.266;10.790;2023-12-20T01:47:37;6.40;;;1.40;;
27219;SDS011;45274;52.266;10.790;2023-12-20T01:50:02;6.25;;;1.60;;
27219;SDS011;45274;52.266;10.790;2023-12-20T01:52:28;6.15;;;1.50;;
27219;SDS011;45274;52.266;10.790;2023-12-20T01:54:54;9.38;;;1.50;;
27219;SDS011;45274;52.266;10.790;2023-12-20T01:57:25;5.88;;;1.10;;
27219;SDS011;45274;52.266;10.790;2023-12-20T01:59:51;10.30;;;1.65;;
27219;SDS011;45274;52.266;10.790;2023-12-20T02:02:16;7.85;;;1.60;;
27219;SDS011;45274;52.266;10.790;2023-12-20T02:04:42;7.60;;;1.92;;
27219;SDS011;45274;52.266;10.790;2023-12-20T02:07:08;7.72;;;3.58;;
27219;SDS011;45274;52.266;10.790;2023-12-20T02:09:33;10.00;;;3.85;;
27219;SDS011;45274;52.266;10.790;2023-12-20T02:11:59;7.75;;;4.40;;
27219;SDS011;45274;52.266;10.790;2023-12-20T02:14:25;11.00;;;4.47;;
27219;SDS011;45274;52.266;10.790;2023-12-20T02:16:50;12.55;;;4.30;;
27219;SDS011;45274;52.266;10.790;2023-12-20T02:19:15;8.27;;;4.18;;
27219;SDS011;45274;52.266;10.790;2023-12-20T02:21:42;12.10;;;4.25;;
27219;SDS011;45274;52.266;10.790;2023-12-20T02:24:07;9.57;;;4.25;;
27219;SDS011;45274;52.266;10.790;2023-12-20T02:26:33;9.52;;;4.75;;
27219;SDS011;45274;52.266;10.790;2023-12-20T02:28:58;7.43;;;3.70;;
27219;SDS011;45274;52.266;10.790;2023-12-20T02:31:24;10.77;;;3.85;;
27219;SDS011;45274;52.266;10.790;2023-12-20T02:33:49;10.43;;;4.32;;
27219;SDS011;45274;52.266;10.790;2023-12-20T02:36:14;13.55;;;3.78;;
27219;SDS011;45274;52.266;10.790;2023-12-20T02:38:40;13.40;;;3.92;;
27219;SDS011;45274;52.266;10.790;2023-12-20T02:41:05;13.10;;;3.95;;
27219;SDS011;45274;52.266;10.790;2023-12-20T02:43:30;13.50;;;3.58;;
27219;SDS011;45274;52.266;10.790;2023-12-20T02:45:55;11.18;;;3.47;;
27219;SDS011;45274;52.266;10.790;2023-12-20T02:48:21;10.57;;;2.90;;
27219;SDS011;45274;52.266;10.790;2023-12-20T02:50:46;10.25;;;3.25;;
27219;SDS011;45274;52.266;10.790;2023-12-20T02:53:12;13.73;;;3.20;;
27219;SDS011;45274;52.266;10.790;2023-12-20T02:55:37;12.07;;;3.38;;
27219;SDS011;45274;52.266;10.790;2023-12-20T02:58:02;9.85;;;3.60;;
27219;SDS011;45274;52.266;10.790;2023-12-20T03:00:27;13.07;;;3.30;;
27219;SDS011;45274;52.266;10.790;2023-12-20T03:02:52;13.00;;;3.35;;
27219;SDS011;45274;52.266;10.790;2023-12-20T03:05:18;10.98;;;3.17;;
27219;SDS011;45274;52.266;10.790;2023-12-20T03:07:43;13.23;;;3.55;;
27219;SDS011;45274;52.266;10.790;2023-12-20T03:10:08;10.95;;;3.38;;
27219;SDS011;45274;52.266;10.790;2023-12-20T03:12:34;12.80;;;3.05;;
27219;SDS011;45274;52.266;10.790;2023-12-20T03:14:59;12.10;;;3.50;;
27219;SDS011;45274;52.266;10.790;2023-12-20T03:17:25;11.65;;;3.20;;
27219;SDS011;45274;52.266;10.790;2023-12-20T03:19:50;9.38;;;2.70;;
27219;SDS011;45274;52.266;10.790;2023-12-20T03:22:15;12.63;;;2.65;;
27219;SDS011;45274;52.266;10.790;2023-12-20T03:24:40;9.52;;;2.05;;
27219;SDS011;45274;52.266;10.790;2023-12-20T03:27:05;11.05;;;2.10;;
27219;SDS011;45274;52.266;10.790;2023-12-20T03:29:31;5.95;;;1.90;;
27219;SDS011;45274;52.266;10.790;2023-12-20T03:31:56;10.48;;;1.85;;
27219;SDS011;45274;52.266;10.790;2023-12-20T03:34:21;25.40;;;3.35;;
27219;SDS011;45274;52.266;10.790;2023-12-20T03:36:46;5.20;;;1.70;;
27219;SDS011;45274;52.266;10.790;2023-12-20T03:39:12;6.53;;;1.48;;
27219;SDS011;45274;52.266;10.790;2023-12-20T03:41:38;9.82;;;1.60;;
27219;SDS011;45274;52.266;10.790;2023-12-20T03:44:03;8.52;;;1.65;;
27219;SDS011;45274;52.266;10.790;2023-12-20T03:46:28;11.13;;;1.75;;
27219;SDS011;45274;52.266;10.790;2023-12-20T03:48:53;6.68;;;1.85;;
27219;SDS011;45274;52.266;10.790;2023-12-20T03:51:19;6.38;;;1.60;;
27219;SDS011;45274;52.266;10.790;2023-12-20T03:53:44;9.38;;;1.65;;
27219;SDS011;45274;52.266;10.790;2023-12-20T03:56:09;5.50;;;1.48;;
27219;SDS011;45274;52.266;10.790;2023-12-20T03:58:34;11.80;;;1.60;;
27219;SDS011;45274;52.266;10.790;2023-12-20T04:01:00;9.98;;;1.55;;
27219;SDS011;45274;52.266;10.790;2023-12-20T04:03:25;9.50;;;1.40;;
27219;SDS011;45274;52.266;10.790;2023-12-20T04:05:50;5.88;;;1.50;;
27219;SDS011;45274;52.266;10.790;2023-12-20T04:08:15;6.95;;;1.42;;
27219;SDS011;45274;52.266;10.790;2023-12-20T04:10:41;10.00;;;1.95;;
27219;SDS011;45274;52.266;10.790;2023-12-20T04:13:06;4.47;;;1.38;;
27219;SDS011;45274;52.266;10.790;2023-12-20T04:15:31;9.88;;;1.52;;
27219;SDS011;45274;52.266;10.790;2023-12-20T04:17:57;9.15;;;1.40;;
27219;SDS011;45274;52.266;10.790;2023-12-20T04:20:22;7.55;;;1.60;;
27219;SDS011;45274;52.266;10.790;2023-12-20T04:22:47;8.25;;;1.75;;
27219;SDS011;45274;52.266;10.790;2023-12-20T04:25:12;9.65;;;1.50;;
27219;SDS011;45274;52.266;10.790;2023-12-20T04:27:38;6.15;;;1.55;;
27219;SDS011;45274;52.266;10.790;2023-12-20T04:30:03;9.82;;;1.30;;
27219;SDS011;45274;52.266;10.790;2023-12-20T04:32:28;7.03;;;1.60;;
27219;SDS011;45274;52.266;10.790;2023-12-20T04:34:54;9.48;;;1.60;;
27219;SDS011;45274;52.266;10.790;2023-12-20T04:37:19;5.95;;;1.27;;
27219;SDS011;45274;52.266;10.790;2023-12-20T04:39:44;8.50;;;1.33;;
27219;SDS011;45274;52.266;10.790;2023-12-20T04:42:10;6.97;;;1.35;;
27219;SDS011;45274;52.266;10.790;2023-12-20T04:44:35;9.43;;;1.67;;
27219;SDS011;45274;52.266;10.790;2023-12-20T04:47:00;11.88;;;1.50;;
27219;SDS011;45274;52.266;10.790;2023-12-20T04:49:26;4.30;;;1.05;;
27219;SDS011;45274;52.266;10.790;2023-12-20T04:51:51;6.82;;;1.60;;
27219;SDS011;45274;52.266;10.790;2023-12-20T04:54:16;8.75;;;1.27;;
27219;SDS011;45274;52.266;10.790;2023-12-20T04:56:41;6.03;;;1.70;;
27219;SDS011;45274;52.266;10.790;2023-12-20T04:59:07;8.38;;;2.22;;
27219;SDS011;45274;52.266;10.790;2023-12-20T05:01:32;7.15;;;1.27;;
27219;SDS011;45274;52.266;10.790;2023-12-20T05:03:57;5.70;;;1.10;;
27219;SDS011;45274;52.266;10.790;2023-12-20T05:06:23;3.92;;;1.42;;
27219;SDS011;45274;52.266;10.790;2023-12-20T05:08:48;8.70;;;1.33;;
27219;SDS011;45274;52.266;10.790;2023-12-20T05:11:13;6.93;;;1.52;;
27219;SDS011;45274;52.266;10.790;2023-12-20T05:13:40;11.27;;;2.00;;
27219;SDS011;45274;52.266;10.790;2023-12-20T05:16:05;8.70;;;1.50;;
27219;SDS011;45274;52.266;10.790;2023-12-20T05:18:30;11.05;;;1.45;;
27219;SDS011;45274;52.266;10.790;2023-12-20T05:20:56;17.00;;;1.88;;
27219;SDS011;45274;52.266;10.790;2023-12-20T05:23:21;9.95;;;1.42;;
27219;SDS011;45274;52.266;10.790;2023-12-20T05:25:46;8.45;;;1.60;;
27219;SDS011;45274;52.266;10.790;2023-12-20T05:28:12;5.88;;;1.27;;
27219;SDS011;45274;52.266;10.790;2023-12-20T05:30:37;10.70;;;1.48;;
27219;SDS011;45274;52.266;10.790;2023-12-20T05:33:03;7.80;;;1.52;;
27219;SDS011;45274;52.266;10.790;2023-12-20T05:35:28;8.10;;;1.60;;
27219;SDS011;45274;52.266;10.790;2023-12-20T05:37:53;11.02;;;1.67;;
27219;SDS011;45274;52.266;10.790;2023-12-20T05:40:19;6.40;;;1.30;;
27219;SDS011;45274;52.266;10.790;2023-12-20T05:42:44;11.95;;;2.72;;
27219;SDS011;45274;52.266;10.790;2023-12-20T05:45:09;9.00;;;1.17;;
27219;SDS011;45274;52.266;10.790;2023-12-20T05:47:34;4.75;;;1.30;;
27219;SDS011;45274;52.266;10.790;2023-12-20T05:50:00;8.10;;;1.55;;
27219;SDS011;45274;52.266;10.790;2023-12-20T05:52:25;3.83;;;1.10;;
27219;SDS011;45274;52.266;10.790;2023-12-20T05:54:50;8.40;;;1.70;;
27219;SDS011;45274;52.266;10.790;2023-12-20T05:57:15;10.40;;;1.90;;
27219;SDS011;45274;52.266;10.790;2023-12-20T05:59:41;12.98;;;2.00;;
27219;SDS011;45274;52.266;10.790;2023-12-20T06:02:06;11.75;;;1.70;;
27219;SDS011;45274;52.266;10.790;2023-12-20T06:04:31;6.13;;;1.67;;
27219;SDS011;45274;52.266;10.790;2023-12-20T06:06:59;7.35;;;1.67;;
27219;SDS011;45274;52.266;10.790;2023-12-20T06:09:24;5.85;;;1.52;;
27219;SDS011;45274;52.266;10.790;2023-12-20T06:11:50;8.80;;;1.80;;
27219;SDS011;45274;52.266;10.790;2023-12-20T06:14:16;13.50;;;2.15;;
27219;SDS011;45274;52.266;10.790;2023-12-20T06:16:41;9.23;;;2.38;;
27219;SDS011;45274;52.266;10.790;2023-12-20T06:19:06;8.88;;;2.08;;
27219;SDS011;45274;52.266;10.790;2023-12-20T06:21:31;9.10;;;1.88;;
27219;SDS011;45274;52.266;10.790;2023-12-20T06:23:58;6.65;;;2.75;;
27219;SDS011;45274;52.266;10.790;2023-12-20T06:26:23;10.50;;;2.67;;
27219;SDS011;45274;52.266;10.790;2023-12-20T06:28:49;7.90;;;1.75;;
27219;SDS011;45274;52.266;10.790;2023-12-20T06:31:14;8.88;;;2.42;;
27219;SDS011;45274;52.266;10.790;2023-12-20T06:33:40;9.35;;;2.00;;
27219;SDS011;45274;52.266;10.790;2023-12-20T06:36:10;12.80;;;2.03;;
27219;SDS011;45274;52.266;10.790;2023-12-20T06:38:35;6.65;;;2.08;;
27219;SDS011;45274;52.266;10.790;2023-12-20T06:41:01;8.88;;;2.42;;
27219;SDS011;45274;52.266;10.790;2023-12-20T06:43:26;10.68;;;2.40;;
27219;SDS011;45274;52.266;10.790;2023-12-20T06:45:51;7.93;;;2.10;;
27219;SDS011;45274;52.266;10.790;2023-12-20T06:48:16;15.02;;;2.33;;
27219;SDS011;45274;52.266;10.790;2023-12-20T06:50:42;15.80;;;2.20;;
27219;SDS011;45274;52.266;10.790;2023-12-20T06:53:07;10.25;;;2.20;;
27219;SDS011;45274;52.266;10.790;2023-12-20T06:55:33;13.63;;;2.40;;
27219;SDS011;45274;52.266;10.790;2023-12-20T06:57:59;13.82;;;2.33;;
27219;SDS011;45274;52.266;10.790;2023-12-20T07:00:24;12.57;;;2.08;;
27219;SDS011;45274;52.266;10.790;2023-12-20T07:02:49;10.27;;;2.65;;
27219;SDS011;45274;52.266;10.790;2023-12-20T07:05:18;11.43;;;2.78;;
27219;SDS011;45274;52.266;10.790;2023-12-20T07:07:45;12.10;;;2.63;;
27219;SDS011;45274;52.266;10.790;2023-12-20T07:10:10;16.17;;;3.28;;
27219;SDS011;45274;52.266;10.790;2023-12-20T07:12:35;12.55;;;2.75;;
27219;SDS011;45274;52.266;10.790;2023-12-20T07:15:01;16.67;;;2.70;;
27219;SDS011;45274;52.266;10.790;2023-12-20T07:17:26;6.90;;;2.22;;
27219;SDS011;45274;52.266;10.790;2023-12-20T07:19:52;10.85;;;2.13;;
27219;SDS011;45274;52.266;10.790;2023-12-20T07:22:17;10.70;;;2.25;;
27219;SDS011;45274;52.266;10.790;2023-12-20T07:24:43;11.18;;;2.72;;
27219;SDS011;45274;52.266;10.790;2023-12-20T07:27:08;11.93;;;2.95;;
27219;SDS011;45274;52.266;10.790;2023-12-20T07:29:33;9.48;;;2.13;;
27219;SDS011;45274;52.266;10.790;2023-12-20T07:31:58;10.45;;;2.17;;
27219;SDS011;45274;52.266;10.790;2023-12-20T07:34:23;14.80;;;3.03;;
27219;SDS011;45274;52.266;10.790;2023-12-20T07:36:49;12.23;;;2.60;;
27219;SDS011;45274;52.266;10.790;2023-12-20T07:39:14;12.55;;;2.63;;
27219;SDS011;45274;52.266;10.790;2023-12-20T07:41:39;9.30;;;2.67;;
27219;SDS011;45274;52.266;10.790;2023-12-20T07:44:04;17.88;;;4.00;;
27219;SDS011;45274;52.266;10.790;2023-12-20T07:46:30;17.10;;;2.85;;
27219;SDS011;45274;52.266;10.790;2023-12-20T07:48:55;14.35;;;2.55;;
27219;SDS011;45274;52.266;10.790;2023-12-20T07:51:20;13.68;;;3.05;;
27219;SDS011;45274;52.266;10.790;2023-12-20T07:53:46;12.35;;;2.28;;
27219;SDS011;45274;52.266;10.790;2023-12-20T07:56:15;10.05;;;2.60;;
27219;SDS011;45274;52.266;10.790;2023-12-20T07:58:40;11.07;;;2.90;;
27219;SDS011;45274;52.266;10.790;2023-12-20T08:01:06;14.10;;;2.95;;
27219;SDS011;45274;52.266;10.790;2023-12-20T08:03:31;15.88;;;2.95;;
27219;SDS011;45274;52.266;10.790;2023-12-20T08:05:57;9.95;;;2.53;;
27219;SDS011;45274;52.266;10.790;2023-12-20T08:08:24;12.07;;;2.38;;
27219;SDS011;45274;52.266;10.790;2023-12-20T08:10:49;13.75;;;2.80;;
27219;SDS011;45274;52.266;10.790;2023-12-20T08:13:14;16.58;;;2.40;;
27219;SDS011;45274;52.266;10.790;2023-12-20T08:15:40;12.88;;;2.45;;
27219;SDS011;45274;52.266;10.790;2023-12-20T08:18:06;11.00;;;2.47;;
27219;SDS011;45274;52.266;10.790;2023-12-20T08:20:31;15.38;;;2.22;;
27219;SDS011;45274;52.266;10.790;2023-12-20T08:22:56;10.85;;;2.45;;
27219;SDS011;45274;52.266;10.790;2023-12-20T08:25:21;14.00;;;3.08;;
27219;SDS011;45274;52.266;10.790;2023-12-20T08:27:47;19.10;;;4.25;;
27219;SDS011;45274;52.266;10.790;2023-12-20T08:30:12;14.27;;;4.20;;
27219;SDS011;45274;52.266;10.790;2023-12-20T08:32:38;19.15;;;3.42;;
27219;SDS011;45274;52.266;10.790;2023-12-20T08:35:03;12.48;;;2.42;;
27219;SDS011;45274;52.266;10.790;2023-12-20T08:37:28;10.63;;;2.20;;
27219;SDS011;45274;52.266;10.790;2023-12-20T08:39:54;15.00;;;3.15;;
27219;SDS011;45274;52.266;10.790;2023-12-20T08:42:20;14.27;;;3.05;;
27219;SDS011;45274;52.266;10.790;2023-12-20T08:44:45;9.25;;;2.10;;
27219;SDS011;45274;52.266;10.790;2023-12-20T08:47:10;21.98;;;3.38;;
27219;SDS011;45274;52.266;10.790;2023-12-20T08:49:38;10.00;;;2.22;;
27219;SDS011;45274;52.266;10.790;2023-12-20T08:52:04;9.77;;;2.40;;
27219;SDS011;45274;52.266;10.790;2023-12-20T08:54:29;18.52;;;2.60;;
27219;SDS011;45274;52.266;10.790;2023-12-20T08:56:54;12.65;;;2.47;;
27219;SDS011;45274;52.266;10.790;2023-12-20T08:59:19;10.93;;;3.13;;
27219;SDS011;45274;52.266;10.790;2023-12-20T09:01:45;12.38;;;2.55;;
27219;SDS011;45274;52.266;10.790;2023-12-20T09:04:10;7.68;;;2.10;;
27219;SDS011;45274;52.266;10.790;2023-12-20T09:06:35;14.10;;;2.58;;
27219;SDS011;45274;52.266;10.790;2023-12-20T09:09:00;14.73;;;2.67;;
27219;SDS011;45274;52.266;10.790;2023-12-20T09:11:25;16.15;;;2.58;;
27219;SDS011;45274;52.266;10.790;2023-12-20T09:13:51;11.47;;;2.50;;
27219;SDS011;45274;52.266;10.790;2023-12-20T09:16:16;10.93;;;2.42;;
27219;SDS011;45274;52.266;10.790;2023-12-20T09:18:41;14.60;;;2.38;;
27219;SDS011;45274;52.266;10.790;2023-12-20T09:21:07;11.10;;;2.95;;
27219;SDS011;45274;52.266;10.790;2023-12-20T09:23:32;10.43;;;2.20;;
27219;SDS011;45274;52.266;10.790;2023-12-20T09:25:57;13.88;;;2.40;;
27219;SDS011;45274;52.266;10.790;2023-12-20T09:28:23;19.83;;;2.88;;
27219;SDS011;45274;52.266;10.790;2023-12-20T09:30:48;12.23;;;2.60;;
27219;SDS011;45274;52.266;10.790;2023-12-20T09:33:14;13.32;;;3.05;;
27219;SDS011;45274;52.266;10.790;2023-12-20T09:35:39;14.27;;;3.03;;
27219;SDS011;45274;52.266;10.790;2023-12-20T09:38:04;19.35;;;3.33;;
27219;SDS011;45274;52.266;10.790;2023-12-20T09:40:29;11.20;;;2.33;;
27219;SDS011;45274;52.266;10.790;2023-12-20T09:42:57;12.30;;;2.92;;
27219;SDS011;45274;52.266;10.790;2023-12-20T09:45:23;14.93;;;2.70;;
27219;SDS011;45274;52.266;10.790;2023-12-20T09:47:54;12.27;;;3.30;;
27219;SDS011;45274;52.266;10.790;2023-12-20T09:50:20;9.77;;;2.88;;
27219;SDS011;45274;52.266;10.790;2023-12-20T09:52:47;14.07;;;2.38;;
27219;SDS011;45274;52.266;10.790;2023-12-20T09:55:12;10.20;;;2.85;;
27219;SDS011;45274;52.266;10.790;2023-12-20T09:57:39;9.55;;;2.15;;
27219;SDS011;45274;52.266;10.790;2023-12-20T10:00:04;19.65;;;2.38;;
27219;SDS011;45274;52.266;10.790;2023-12-20T10:02:31;13.60;;;2.80;;
27219;SDS011;45274;52.266;10.790;2023-12-20T10:04:57;9.70;;;2.10;;
27219;SDS011;45274;52.266;10.790;2023-12-20T10:07:22;10.07;;;2.60;;
27219;SDS011;45274;52.266;10.790;2023-12-20T10:09:48;11.95;;;2.88;;
27219;SDS011;45274;52.266;10.790;2023-12-20T10:12:13;9.27;;;2.15;;
27219;SDS011;45274;52.266;10.790;2023-12-20T10:14:39;9.77;;;2.65;;
27219;SDS011;45274;52.266;10.790;2023-12-20T10:17:05;9.88;;;2.70;;
27219;SDS011;45274;52.266;10.790;2023-12-20T10:19:31;9.60;;;2.28;;
27219;SDS011;45274;52.266;10.790;2023-12-20T10:21:57;11.98;;;2.92;;
27219;SDS011;45274;52.266;10.790;2023-12-20T10:24:22;13.15;;;2.53;;
27219;SDS011;45274;52.266;10.790;2023-12-20T10:26:47;9.25;;;2.50;;
27219;SDS011;45274;52.266;10.790;2023-12-20T10:29:13;12.77;;;2.65;;
27219;SDS011;45274;52.266;10.790;2023-12-20T10:31:38;11.75;;;2.83;;
27219;SDS011;45274;52.266;10.790;2023-12-20T10:34:03;8.88;;;2.85;;
27219;SDS011;45274;52.266;10.790;2023-12-20T10:36:30;14.82;;;3.13;;
27219;SDS011;45274;52.266;10.790;2023-12-20T10:38:56;14.05;;;2.58;;
27219;SDS011;45274;52.266;10.790;2023-12-20T10:41:32;12.90;;;2.97;;
27219;SDS011;45274;52.266;10.790;2023-12-20T10:44:04;12.50;;;3.38;;
27219;SDS011;45274;52.266;10.790;2023-12-20T10:46:33;10.60;;;2.75;;
27219;SDS011;45274;52.266;10.790;2023-12-20T10:48:58;12.10;;;3.10;;
27219;SDS011;45274;52.266;10.790;2023-12-20T10:51:24;10.18;;;3.33;;
27219;SDS011;45274;52.266;10.790;2023-12-20T10:53:51;11.32;;;2.17;;
27219;SDS011;45274;52.266;10.790;2023-12-20T10:56:17;10.95;;;2.20;;
27219;SDS011;45274;52.266;10.790;2023-12-20T10:58:43;10.25;;;2.80;;
27219;SDS011;45274;52.266;10.790;2023-12-20T11:01:08;10.18;;;2.58;;
27219;SDS011;45274;52.266;10.790;2023-12-20T11:03:34;18.17;;;4.00;;
27219;SDS011;45274;52.266;10.790;2023-12-20T11:06:09;12.90;;;3.00;;
27219;SDS011;45274;52.266;10.790;2023-12-20T11:08:39;7.65;;;2.65;;
27219;SDS011;45274;52.266;10.790;2023-12-20T11:13:36;16.60;;;3.17;;
27219;SDS011;45274;52.266;10.790;2023-12-20T11:16:03;10.10;;;2.88;;
27219;SDS011;45274;52.266;10.790;2023-12-20T11:18:31;8.93;;;2.67;;
27219;SDS011;45274;52.266;10.790;2023-12-20T11:21:06;9.75;;;2.40;;
27219;SDS011;45274;52.266;10.790;2023-12-20T11:23:32;11.80;;;2.97;;
27219;SDS011;45274;52.266;10.790;2023-12-20T11:25:59;9.30;;;2.92;;
27219;SDS011;45274;52.266;10.790;2023-12-20T11:28:24;13.05;;;3.03;;
27219;SDS011;45274;52.266;10.790;2023-12-20T11:35:50;5.95;;;2.60;;
27219;SDS011;45274;52.266;10.790;2023-12-20T11:38:15;12.27;;;3.10;;
27219;SDS011;45274;52.266;10.790;2023-12-20T11:40:41;13.32;;;3.30;;
27219;SDS011;45274;52.266;10.790;2023-12-20T11:43:06;10.63;;;2.95;;
27219;SDS011;45274;52.266;10.790;2023-12-20T11:45:32;10.35;;;2.90;;
27219;SDS011;45274;52.266;10.790;2023-12-20T11:47:59;14.98;;;3.28;;
27219;SDS011;45274;52.266;10.790;2023-12-20T11:50:25;14.30;;;3.38;;
27219;SDS011;45274;52.266;10.790;2023-12-20T11:52:51;6.78;;;2.45;;
27219;SDS011;45274;52.266;10.790;2023-12-20T11:55:16;12.60;;;2.67;;
27219;SDS011;45274;52.266;10.790;2023-12-20T11:57:42;11.02;;;3.22;;
27219;SDS011;45274;52.266;10.790;2023-12-20T12:00:08;10.50;;;2.83;;
27219;SDS011;45274;52.266;10.790;2023-12-20T12:02:33;9.93;;;2.92;;
27219;SDS011;45274;52.266;10.790;2023-12-20T12:05:02;10.27;;;2.70;;
27219;SDS011;45274;52.266;10.790;2023-12-20T12:07:30;11.75;;;3.03;;
27219;SDS011;45274;52.266;10.790;2023-12-20T12:09:55;8.88;;;2.80;;
27219;SDS011;45274;52.266;10.790;2023-12-20T12:12:20;6.97;;;3.05;;
27219;SDS011;45274;52.266;10.790;2023-12-20T12:14:46;9.77;;;2.50;;
27219;SDS011;45274;52.266;10.790;2023-12-20T12:17:11;9.48;;;2.85;;
27219;SDS011;45274;52.266;10.790;2023-12-20T12:19:37;7.75;;;2.95;;
27219;SDS011;45274;52.266;10.790;2023-12-20T12:24:38;6.60;;;2.10;;
27219;SDS011;45274;52.266;10.790;2023-12-20T12:27:05;6.22;;;2.47;;
27219;SDS011;45274;52.266;10.790;2023-12-20T12:29:31;9.75;;;2.47;;
27219;SDS011;45274;52.266;10.790;2023-12-20T12:31:56;12.93;;;2.95;;
27219;SDS011;45274;52.266;10.790;2023-12-20T12:34:21;10.70;;;2.65;;
27219;SDS011;45274;52.266;10.790;2023-12-20T12:36:46;8.35;;;2.30;;
27219;SDS011;45274;52.266;10.790;2023-12-20T12:39:13;7.30;;;2.28;;
27219;SDS011;45274;52.266;10.790;2023-12-20T12:41:40;7.43;;;1.92;;
27219;SDS011;45274;52.266;10.790;2023-12-20T12:44:05;7.75;;;2.70;;
27219;SDS011;45274;52.266;10.790;2023-12-20T12:46:31;7.13;;;2.13;;
27219;SDS011;45274;52.266;10.790;2023-12-20T12:48:57;7.65;;;2.20;;
27219;SDS011;45274;52.266;10.790;2023-12-20T12:51:23;10.98;;;1.98;;
27219;SDS011;45274;52.266;10.790;2023-12-20T12:53:48;6.65;;;2.22;;
27219;SDS011;45274;52.266;10.790;2023-12-20T12:56:13;4.60;;;1.50;;
27219;SDS011;45274;52.266;10.790;2023-12-20T12:58:39;7.65;;;1.92;;
27219;SDS011;45274;52.266;10.790;2023-12-20T13:01:04;6.30;;;1.65;;
27219;SDS011;45274;52.266;10.790;2023-12-20T13:03:29;8.35;;;2.33;;
27219;SDS011;45274;52.266;10.790;2023-12-20T13:05:55;5.45;;;1.65;;
27219;SDS011;45274;52.266;10.790;2023-12-20T13:08:20;5.22;;;1.67;;
27219;SDS011;45274;52.266;10.790;2023-12-20T13:10:45;7.45;;;1.40;;
27219;SDS011;45274;52.266;10.790;2023-12-20T13:13:11;2.97;;;1.10;;
27219;SDS011;45274;52.266;10.790;2023-12-20T13:15:36;3.22;;;0.95;;
27219;SDS011;45274;52.266;10.790;2023-12-20T13:18:01;12.93;;;1.30;;
27219;SDS011;45274;52.266;10.790;2023-12-20T13:20:27;2.92;;;0.80;;
27219;SDS011;45274;52.266;10.790;2023-12-20T13:22:52;4.13;;;0.82;;
27219;SDS011;45274;52.266;10.790;2023-12-20T13:25:17;2.92;;;0.80;;
27219;SDS011;45274;52.266;10.790;2023-12-20T13:27:43;3.58;;;1.05;;
27219;SDS011;45274;52.266;10.790;2023-12-20T13:30:08;2.22;;;0.77;;
27219;SDS011;45274;52.266;10.790;2023-12-20T13:32:34;1.98;;;0.60;;
27219;SDS011;45274;52.266;10.790;2023-12-20T13:34:59;3.50;;;0.90;;
27219;SDS011;45274;52.266;10.790;2023-12-20T13:37:24;5.65;;;1.10;;
27219;SDS011;45274;52.266;10.790;2023-12-20T13:39:49;4.70;;;0.90;;
27219;SDS011;45274;52.266;10.790;2023-12-20T13:42:15;3.60;;;0.70;;
27219;SDS011;45274;52.266;10.790;2023-12-20T13:44:40;2.60;;;0.93;;
27219;SDS011;45274;52.266;10.790;2023-12-20T13:47:05;4.70;;;0.95;;
27219;SDS011;45274;52.266;10.790;2023-12-20T13:49:31;3.38;;;0.88;;
27219;SDS011;45274;52.266;10.790;2023-12-20T13:51:56;2.92;;;0.77;;
27219;SDS011;45274;52.266;10.790;2023-12-20T13:54:22;5.13;;;1.02;;
27219;SDS011;45274;52.266;10.790;2023-12-20T13:56:47;5.75;;;2.10;;
27219;SDS011;45274;52.266;10.790;2023-12-20T13:59:13;7.68;;;2.00;;
27219;SDS011;45274;52.266;10.790;2023-12-20T14:01:40;3.40;;;1.10;;
27219;SDS011;45274;52.266;10.790;2023-12-20T14:04:05;5.68;;;0.90;;
27219;SDS011;45274;52.266;10.790;2023-12-20T14:06:31;6.82;;;1.27;;
27219;SDS011;45274;52.266;10.790;2023-12-20T14:08:57;7.30;;;1.30;;
27219;SDS011;45274;52.266;10.790;2023-12-20T14:11:25;4.28;;;0.93;;
27219;SDS011;45274;52.266;10.790;2023-12-20T14:13:50;2.95;;;0.70;;
27219;SDS011;45274;52.266;10.790;2023-12-20T14:16:15;4.65;;;1.25;;
27219;SDS011;45274;52.266;10.790;2023-12-20T14:18:41;5.80;;;0.82;;
27219;SDS011;45274;52.266;10.790;2023-12-20T14:21:07;4.43;;;0.80;;
27219;SDS011;45274;52.266;10.790;2023-12-20T14:23:32;6.57;;;1.00;;
27219;SDS011;45274;52.266;10.790;2023-12-20T14:25:58;5.68;;;0.95;;
27219;SDS011;45274;52.266;10.790;2023-12-20T14:28:24;5.82;;;1.00;;